This is the latest recevied weather packets stored in our database for station/object DF7PN-WX. If no packets are shown the sender has not sent any weather packets the latest 1 day(s).
| Time | Temp. | Humidity | Pressure | Rain* | Wind** | Luminosity | Snow |
|---|---|---|---|---|---|---|---|
| 1777969872 | 18.33° C | 68% | 1009.8 hPa | - | 0.89 m/s, 238° | - | - |
| 1777969572 | 18.89° C | 67% | 1009.9 hPa | - | 0.45 m/s, 245° | - | - |
| 1777969272 | 19.44° C | 63% | 1009.9 hPa | - | 0.45 m/s, 245° | - | - |
| 1777968972 | 20° C | 62% | 1009.9 hPa | - | 0.45 m/s, 245° | - | - |
| 1777968672 | 19.44° C | 64% | 1010 hPa | - | 0.45 m/s, 245° | - | - |
| 1777968372 | 18.89° C | 67% | 1010 hPa | - | 0.45 m/s, 245° | - | - |
| 1777968072 | 18.89° C | 66% | 1010 hPa | - | 0 m/s | - | - |
| 1777967772 | 18.89° C | 65% | 1010 hPa | - | 0 m/s | - | - |
| 1777967472 | 18.89° C | 69% | 1010 hPa | - | 0 m/s | - | - |
| 1777967172 | 17.78° C | 72% | 1010.1 hPa | - | 0.45 m/s, 245° | - | - |
| 1777966872 | 17.78° C | 71% | 1010.2 hPa | - | 0.45 m/s, 245° | - | - |
| 1777966572 | 18.33° C | 71% | 1010.1 hPa | - | 0.45 m/s, 245° | - | - |
| 1777966272 | 18.33° C | 70% | 1010.2 hPa | - | 0.45 m/s, 245° | - | - |
| 1777965972 | 18.33° C | 72% | 1010.2 hPa | - | 0.45 m/s, 264° | - | - |
| 1777965672 | 17.78° C | 74% | 1010.3 hPa | - | 0.45 m/s, 264° | - | - |
| 1777965372 | 17.22° C | 74% | 1010.4 hPa | - | 0 m/s | - | - |
| 1777965071 | 17.22° C | 76% | 1010.4 hPa | - | 0 m/s | - | - |
| 1777964771 | 16.67° C | 79% | 1010.4 hPa | - | 0 m/s | - | - |
| 1777964471 | 16.11° C | 83% | 1010.4 hPa | - | 0.45 m/s, 264° | - | - |
| 1777964171 | 16.11° C | 88% | 1010.4 hPa | - | 0.45 m/s, 264° | - | - |
| 1777963871 | 15.56° C | 89% | 1010.5 hPa | - | 0.45 m/s, 264° | - | - |
| 1777963571 | 15.56° C | 92% | 1010.5 hPa | - | 0 m/s | - | - |
| 1777963271 | 15.56° C | 92% | 1010.5 hPa | - | 0 m/s | - | - |
| 1777962971 | 16.11° C | 92% | 1010.6 hPa | - | 0 m/s | - | - |
| 1777962671 | 15.56° C | 93% | 1010.7 hPa | - | 0.45 m/s, 271° | - | - |
* Rain since midnight (hover to see other rain measurements)
** Current wind speed in m/s (hover to see current wind gust speed)